Ashland, Montana
Current Conditions -  °F | °C
As of 11:53 AM on Saturday 20 Dec 2014 (Local Time) from KMLS Reporting Station
Clear Clear  
Wind Chill: 39°   Ceiling: Unl
Heat Index: 44°   Visibility: 10mi
Dew Point: 28°   Wind: 10mph
Humidity: 53%   Direction: 240°WSW
Pressure: 29.87"   Gusts: NA
Location:  45.62°N, 106.31°W
Report Text: KMLS 201853Z AUTO 24009KT 10SM CLR 07/M02 A2987 RMK AO2 SLP133 T00671022
Loading
Personal Weather Stations






























Interactive Weather Map New forecast layout! Learn more

10-Day Weather Forecast

Advertisements
Track Severe Weather on mobile